Time;durP1;ratioP1;P1;durP2;ratioP2;P2;SDS_P1;SDS_P2;PMS_P1;PMS_P2;Temp;Humidity;BMP_temperature;BMP_pressure;BME280_temperature;BME280_humidity;BME280_pressure;Samples;Min_cycle;Max_cycle;Signal;HPM_P1;HPM_P2
2021/09/18 00:00:34;;;;;;;5.83;5.23;;;9.60;99.90;;;;;;5075358;28;20456;-93
2021/09/18 00:03:02;;;;;;;7.97;5.33;;;;;;;;;;5074563;28;20456;-92
2021/09/18 00:05:29;;;;;;;5.90;5.10;;;;;;;;;;5074240;28;20945;-91
2021/09/18 00:07:56;;;;;;;6.10;4.90;;;;;;;;;;5072605;28;20925;-90
2021/09/18 00:10:24;;;;;;;6.00;5.50;;;;;;;;;;5073029;28;20850;-88
2021/09/18 00:12:52;;;;;;;6.93;5.93;;;;;;;;;;5072751;28;20504;-88
2021/09/18 00:15:19;;;;;;;6.07;5.50;;;;;;;;;;5069466;28;20445;-88
2021/09/18 00:17:49;;;;;;;9.20;5.70;;;;;;;;;;5073751;28;20449;-90
2021/09/18 00:20:16;;;;;;;6.00;5.40;;;;;;;;;;5072752;28;20462;-89
2021/09/18 00:22:43;;;;;;;5.90;5.23;;;;;;;;;;5073304;28;20457;-89
2021/09/18 00:25:11;;;;;;;6.93;5.17;;;;;;;;;;5073803;28;20453;-90
2021/09/18 00:27:38;;;;;;;5.50;5.00;;;;;;;;;;5071201;28;20449;-90
2021/09/18 00:30:06;;;;;;;6.40;5.10;;;9.40;99.90;;;;;;5069195;28;20925;-90
2021/09/18 00:32:34;;;;;;;11.17;5.30;;;;;;;;;;5074759;28;20434;-87
2021/09/18 00:35:02;;;;;;;5.77;4.97;;;9.40;99.90;;;;;;5085021;28;20477;-90
2021/09/18 00:37:30;;;;;;;6.70;5.70;;;;;;;;;;5074424;28;20481;-90
2021/09/18 00:39:57;;;;;;;9.03;6.23;;;;;;;;;;5073230;28;20789;-90
2021/09/18 00:42:24;;;;;;;7.50;5.70;;;;;;;;;;5073938;28;20442;-91
2021/09/18 00:44:52;;;;;;;7.53;6.80;;;9.30;99.90;;;;;;5072993;28;20461;-90
2021/09/18 00:47:19;;;;;;;9.40;5.20;;;;;;;;;;5072428;28;20441;-89
2021/09/18 00:49:46;;;;;;;7.53;6.53;;;;;;;;;;5074074;28;20446;-93
2021/09/18 00:52:18;;;;;;;8.40;5.83;;;9.30;99.90;;;;;;5073960;28;20445;-93
2021/09/18 00:54:46;;;;;;;6.20;5.53;;;;;;;;;;5074581;28;20457;-91
2021/09/18 00:57:13;;;;;;;13.07;6.93;;;;;;;;;;5073495;28;20485;-90
2021/09/18 00:59:40;;;;;;;13.53;7.37;;;;;;;;;;5073753;28;20944;-91
2021/09/18 01:02:08;;;;;;;9.30;7.80;;;;;;;;;;5071116;28;20446;-92
2021/09/18 01:04:35;;;;;;;7.40;6.57;;;;;;;;;;5073753;28;20430;-92
2021/09/18 01:07:02;;;;;;;8.17;6.70;;;;;;;;;;5073237;28;20464;-95
2021/09/18 01:09:32;;;;;;;8.17;7.20;;;9.20;99.90;;;;;;5073125;28;20470;-93
2021/09/18 01:11:59;;;;;;;10.47;7.13;;;;;;;;;;5072956;28;20430;-91
2021/09/18 01:14:27;;;;;;;8.93;7.60;;;;;;;;;;5072944;28;20936;-93
2021/09/18 01:16:56;;;;;;;9.07;7.20;;;9.10;99.90;;;;;;5072817;28;20477;-91
2021/09/18 01:19:24;;;;;;;9.33;7.20;;;;;;;;;;5073546;28;20453;-94
2021/09/18 01:21:51;;;;;;;13.43;8.50;;;9.20;99.90;;;;;;5074793;28;20442;-93
2021/09/18 01:24:20;;;;;;;8.10;6.90;;;9.20;99.90;;;;;;5077189;28;20448;-91
2021/09/18 01:26:48;;;;;;;9.40;6.70;;;;;;;;;;5072236;28;20441;-91
2021/09/18 01:29:15;;;;;;;8.20;7.37;;;;;;;;;;5072723;28;20468;-92
2021/09/18 01:31:44;;;;;;;9.63;7.10;;;9.20;99.90;;;;;;5076248;28;20453;-89
2021/09/18 01:34:11;;;;;;;7.40;6.70;;;;;;;;;;5075675;28;20438;-89
2021/09/18 01:36:39;;;;;;;7.83;6.37;;;;;;;;;;5037047;28;20491;-94
2021/09/18 01:39:11;;;;;;;12.60;6.97;;;9.10;99.90;;;;;;5037146;28;20439;-91
2021/09/18 01:41:41;;;;;;;9.60;7.47;;;9.10;99.90;;;;;;5035086;28;20440;-94
2021/09/18 01:44:08;;;;;;;7.03;6.33;;;;;;;;;;5038020;28;20450;-89
2021/09/18 01:46:38;;;;;;;8.23;6.50;;;;;;;;;;5035708;28;20443;-90
2021/09/18 01:49:05;;;;;;;8.43;7.20;;;;;;;;;;5036629;28;20911;-93
2021/09/18 01:51:37;;;;;;;7.87;7.00;;;;;;;;;;5039099;28;20439;-89
2021/09/18 01:54:04;;;;;;;11.83;6.43;;;;;;;;;;5046238;28;20447;-89
2021/09/18 01:56:32;;;;;;;8.50;5.97;;;;;;;;;;5036634;28;20597;-92
2021/09/18 01:59:00;;;;;;;8.57;6.90;;;8.90;99.90;;;;;;5036828;28;20792;-92
2021/09/18 02:01:27;;;;;;;8.70;6.60;;;;;;;;;;5035193;28;20439;-90
2021/09/18 02:03:54;;;;;;;6.97;6.27;;;;;;;;;;5042941;28;20458;-89
2021/09/18 02:06:22;;;;;;;8.17;6.40;;;;;;;;;;5050094;28;20447;-90
2021/09/18 02:08:49;;;;;;;7.20;6.50;;;;;;;;;;5036967;28;20490;-93
2021/09/18 02:11:16;;;;;;;7.20;6.33;;;;;;;;;;5034877;28;20447;-91
2021/09/18 02:13:44;;;;;;;6.80;6.10;;;;;;;;;;5035927;28;20448;-90
2021/09/18 02:16:12;;;;;;;7.57;6.87;;;8.90;99.90;;;;;;5035432;28;20458;-90
2021/09/18 02:18:39;;;;;;;7.43;6.63;;;8.90;99.90;;;;;;5035776;28;20493;-90
2021/09/18 02:21:07;;;;;;;9.10;6.87;;;;;;;;;;5036618;28;20431;-94
2021/09/18 02:23:34;;;;;;;7.67;6.20;;;;;;;;;;5035836;28;20440;-91
2021/09/18 02:26:01;;;;;;;7.73;6.40;;;;;;;;;;5036250;28;20454;-94
2021/09/18 02:28:28;;;;;;;6.73;6.07;;;;;;;;;;5034706;28;20444;-94
2021/09/18 02:30:56;;;;;;;8.50;6.10;;;;;;;;;;5035655;28;20454;-93
2021/09/18 02:33:24;;;;;;;7.77;6.50;;;8.70;99.90;;;;;;5036881;28;20460;-92
2021/09/18 02:35:52;;;;;;;7.33;6.23;;;;;;;;;;5063193;28;20485;-90
2021/09/18 02:38:20;;;;;;;9.40;6.97;;;8.70;99.90;;;;;;5071766;28;20500;-93
2021/09/18 02:40:52;;;;;;;8.07;6.50;;;;;;;;;;5075462;28;20449;-89
2021/09/18 02:43:19;;;;;;;10.60;7.57;;;8.60;99.90;;;;;;5076260;28;20521;-91
2021/09/18 02:45:47;;;;;;;9.03;7.00;;;;;;;;;;5072275;28;20445;-94
2021/09/18 02:48:14;;;;;;;7.00;6.23;;;;;;;;;;5075740;28;20452;-92
2021/09/18 02:50:43;;;;;;;9.00;6.30;;;8.70;99.90;;;;;;5075264;28;20453;-91
2021/09/18 02:53:10;;;;;;;6.90;6.23;;;;;;;;;;5075410;28;20449;-93
2021/09/18 02:55:37;;;;;;;7.20;6.50;;;;;;;;;;5075416;28;20457;-92
2021/09/18 02:58:05;;;;;;;14.93;7.27;;;;;;;;;;5075509;28;20482;-90
2021/09/18 03:00:32;;;;;;;6.47;5.70;;;;;;;;;;5074866;28;20450;-93
2021/09/18 03:02:59;;;;;;;7.10;6.40;;;;;;;;;;5075576;28;20435;-94
2021/09/18 03:05:26;;;;;;;6.90;6.07;;;;;;;;;;5075340;28;20454;-92
2021/09/18 03:07:55;;;;;;;6.47;5.80;;;9.10;99.90;;;;;;5090760;28;20456;-90
2021/09/18 03:10:22;;;;;;;7.50;6.50;;;;;;;;;;5088799;28;20458;-92
2021/09/18 03:12:49;;;;;;;6.73;6.13;;;;;;;;;;5075452;28;20433;-92
2021/09/18 03:15:17;;;;;;;7.73;6.17;;;;;;;;;;5072766;28;20448;-88
2021/09/18 03:17:44;;;;;;;6.70;6.10;;;;;;;;;;5074661;28;20842;-90
2021/09/18 03:20:12;;;;;;;9.57;6.40;;;8.60;99.90;;;;;;5073531;28;20905;-93
2021/09/18 03:22:39;;;;;;;7.20;5.93;;;;;;;;;;5073488;28;20455;-90
2021/09/18 03:25:10;;;;;;;11.40;6.63;;;8.80;99.90;;;;;;5074594;28;20449;-92
2021/09/18 03:27:37;;;;;;;5.90;5.23;;;;;;;;;;5072099;28;20430;-92
2021/09/18 03:30:05;;;;;;;6.27;5.67;;;;;;;;;;5075012;28;20453;-92
2021/09/18 03:32:32;;;;;;;7.90;6.03;;;;;;;;;;5072192;28;20438;-93
2021/09/18 03:34:59;;;;;;;6.00;5.40;;;;;;;;;;5085554;28;20477;-89
2021/09/18 03:37:27;;;;;;;6.83;5.83;;;;;;;;;;5082484;28;20480;-90
2021/09/18 03:39:54;;;;;;;6.27;5.67;;;;;;;;;;5074585;28;20429;-90
2021/09/18 03:42:22;;;;;;;7.40;5.40;;;8.50;99.90;;;;;;5074259;28;20929;-91
2021/09/18 03:44:50;;;;;;;6.53;5.93;;;;;;;;;;5073470;28;20487;-89
2021/09/18 03:47:17;;;;;;;7.03;6.33;;;;;;;;;;5073243;28;20454;-91
2021/09/18 03:49:44;;;;;;;7.47;5.53;;;;;;;;;;5074277;28;20450;-93
2021/09/18 03:52:12;;;;;;;7.20;6.23;;;;;;;;;;5074540;28;20771;-91
2021/09/18 03:54:39;;;;;;;6.77;6.07;;;;;;;;;;5074017;28;20445;-90
2021/09/18 03:57:06;;;;;;;6.90;6.07;;;;;;;;;;5074111;28;20485;-92
2021/09/18 03:59:35;;;;;;;6.00;5.43;;;8.30;99.90;;;;;;5074297;28;20471;-95
2021/09/18 04:02:02;;;;;;;5.67;5.17;;;;;;;;;;5068227;28;20814;-90
2021/09/18 04:04:29;;;;;;;6.10;5.10;;;;;;;;;;5072847;28;20945;-90
2021/09/18 04:06:57;;;;;;;7.43;5.70;;;;;;;;;;5074214;28;20449;-92
2021/09/18 04:09:24;;;;;;;5.93;5.30;;;;;;;;;;5080786;28;20449;-90
2021/09/18 04:11:51;;;;;;;14.40;5.47;;;;;;;;;;5083104;28;20441;-89
2021/09/18 04:14:19;;;;;;;7.37;5.93;;;;;;;;;;5072815;28;20450;-95
2021/09/18 04:16:47;;;;;;;6.87;6.17;;;8.30;99.90;;;;;;5073053;28;20450;-92
2021/09/18 04:19:14;;;;;;;7.20;6.50;;;;;;;;;;5071395;28;20453;-92
2021/09/18 04:21:42;;;;;;;7.80;6.23;;;8.30;99.90;;;;;;5074282;28;20445;-91
2021/09/18 04:24:09;;;;;;;5.60;5.10;;;;;;;;;;5073577;28;20446;-92
2021/09/18 04:26:37;;;;;;;6.90;6.20;;;;;;;;;;5073644;28;20453;-94
2021/09/18 04:29:04;;;;;;;7.57;5.83;;;;;;;;;;5074179;28;20420;-93
2021/09/18 04:31:32;;;;;;;7.80;5.60;;;;;;;;;;5073213;28;20461;-91
2021/09/18 04:34:00;;;;;;;6.23;5.53;;;8.10;99.90;;;;;;5074021;28;20438;-95
2021/09/18 04:36:29;;;;;;;11.20;6.00;;;;;;;;;;5082503;28;20476;-95
2021/09/18 04:39:00;;;;;;;6.40;5.80;;;;;;;;;;5072032;28;20474;-87
2021/09/18 04:41:30;;;;;;;5.53;5.03;;;;;;;;;;5061836;28;20782;-90
2021/09/18 04:44:00;;;;;;;6.30;5.20;;;;;;;;;;5066310;28;20441;-93
2021/09/18 04:46:31;;;;;;;6.40;5.50;;;;;;;;;;5057140;28;20473;-90
2021/09/18 04:49:00;;;;;;;8.07;6.00;;;8.00;99.90;;;;;;5053996;28;20445;-89
2021/09/18 04:51:31;;;;;;;7.63;5.97;;;;;;;;;;5045469;28;20429;-92
2021/09/18 04:54:06;;;;;;;7.97;5.97;;;;;;;;;;5063135;28;20550;-95
2021/09/18 04:56:35;;;;;;;10.63;6.47;;;;;;;;;;5066277;28;20523;-89
2021/09/18 04:59:03;;;;;;;8.83;6.53;;;;;;;;;;5085544;28;20573;-94
2021/09/18 05:01:31;;;;;;;7.27;6.50;;;;;;;;;;5087965;28;20941;-94
2021/09/18 05:04:00;;;;;;;9.00;6.23;;;;;;;;;;5057990;28;20443;-90
2021/09/18 05:06:32;;;;;;;8.20;6.60;;;;;;;;;;5092803;28;20444;-91
2021/09/18 05:09:05;;;;;;;9.37;7.43;;;;;;;;;;5096890;28;20496;-88
2021/09/18 05:11:33;;;;;;;6.63;5.93;;;;;;;;;;5089205;28;20445;-89
2021/09/18 05:14:10;;;;;;;7.50;6.40;;;;;;;;;;5091489;28;20441;-92
2021/09/18 05:16:42;;;;;;;8.60;6.80;;;;;;;;;;5081662;28;20439;-89
2021/09/18 05:19:12;;;;;;;10.13;7.63;;;8.10;99.90;;;;;;5088975;28;20895;-93
2021/09/18 05:21:40;;;;;;;8.73;7.50;;;8.10;99.90;;;;;;5055267;28;20445;-92
2021/09/18 05:24:08;;;;;;;8.90;7.10;;;;;;;;;;5056394;28;20453;-92
2021/09/18 05:26:35;;;;;;;10.67;6.97;;;;;;;;;;5060559;28;20454;-88
2021/09/18 05:29:02;;;;;;;8.73;7.53;;;;;;;;;;5057069;28;20449;-91
2021/09/18 05:31:29;;;;;;;8.43;7.07;;;;;;;;;;5056396;28;20430;-93
2021/09/18 05:33:58;;;;;;;10.10;8.40;;;;;;;;;;5056962;28;20442;-95
2021/09/18 05:36:39;;;;;;;10.20;6.73;;;;;;;;;;5056984;28;20466;-90
2021/09/18 05:39:07;;;;;;;9.67;8.53;;;;;;;;;;5057371;28;20485;-93
2021/09/18 05:41:37;;;;;;;9.97;8.00;;;8.60;99.90;;;;;;5057029;28;20447;-92
2021/09/18 05:44:05;;;;;;;10.70;8.60;;;;;;;;;;5057226;28;20844;-89
2021/09/18 05:46:32;;;;;;;12.33;9.00;;;;;;;;;;5061242;28;20438;-91
2021/09/18 05:48:59;;;;;;;10.83;8.13;;;;;;;;;;5056276;28;20443;-91
2021/09/18 05:51:29;;;;;;;12.50;7.60;;;9.80;99.90;;;;;;5061330;28;20450;-91
2021/09/18 05:53:57;;;;;;;8.60;7.57;;;;;;;;;;5056116;28;20446;-90
2021/09/18 05:56:26;;;;;;;11.80;6.53;;;;;;;;;;5061142;28;20451;-93
2021/09/18 05:58:57;;;;;;;10.23;7.30;;;;;;;;;;5076561;28;20484;-91
2021/09/18 06:01:27;;;;;;;7.80;7.00;;;;;;;;;;5086832;28;20445;-93
2021/09/18 06:03:55;;;;;;;7.60;6.63;;;;;;;;;;5087323;28;20446;-88
2021/09/18 06:06:25;;;;;;;7.90;7.07;;;;;;;;;;5083601;28;20462;-90
2021/09/18 06:08:53;;;;;;;7.43;6.70;;;;;;;;;;5072975;28;20456;-86
2021/09/18 06:11:20;;;;;;;8.57;6.63;;;;;;;;;;5090582;28;20440;-89
2021/09/18 06:13:49;;;;;;;7.77;6.83;;;;;;;;;;5097595;28;20449;-90
2021/09/18 06:16:16;;;;;;;11.13;6.47;;;;;;;;;;5096705;28;20429;-88
2021/09/18 06:18:43;;;;;;;7.53;6.40;;;;;;;;;;5096044;28;20488;-90
2021/09/18 06:21:11;;;;;;;7.23;6.53;;;;;;;;;;5096530;28;20448;-91
2021/09/18 06:23:40;;;;;;;6.23;5.63;;;13.20;99.90;;;;;;5110029;28;20536;-86
2021/09/18 06:26:07;;;;;;;6.87;6.27;;;;;;;;;;5111710;28;20478;-87
2021/09/18 06:28:34;;;;;;;8.00;7.20;;;;;;;;;;5103619;28;20445;-91
2021/09/18 06:31:03;;;;;;;8.43;6.77;;;14.00;99.90;;;;;;5099532;28;20448;-87
2021/09/18 06:33:31;;;;;;;9.47;7.43;;;;;;;;;;5096118;28;20452;-93
2021/09/18 06:35:58;;;;;;;8.57;6.70;;;;;;;;;;5100569;28;20479;-87
2021/09/18 06:38:25;;;;;;;7.60;6.90;;;;;;;;;;5100711;28;20485;-89
2021/09/18 06:40:54;;;;;;;12.77;7.50;;;15.20;99.90;;;;;;5053196;28;20443;-89
2021/09/18 06:43:22;;;;;;;9.33;8.27;;;;;;;;;;5051234;28;20451;-91
2021/09/18 06:45:49;;;;;;;8.17;7.30;;;;;;;;;;5052158;28;20504;-90
2021/09/18 06:48:18;;;;;;;9.13;8.23;;;15.90;99.90;;;;;;5061455;28;20465;-92
2021/09/18 06:50:45;;;;;;;9.80;8.90;;;15.90;99.90;;;;;;5061732;28;20447;-89
2021/09/18 06:53:12;;;;;;;8.77;7.97;;;;;;;;;;5056877;28;20443;-89
2021/09/18 06:55:39;;;;;;;8.30;7.60;;;;;;;;;;5059665;28;20568;-88
2021/09/18 06:58:07;;;;;;;11.10;8.40;;;;;;;;;;5067746;28;20491;-87
2021/09/18 07:00:34;;;;;;;8.43;7.60;;;;;;;;;;5086371;22;20491;-89
2021/09/18 07:03:01;;;;;;;9.77;8.97;;;;;;;;;;5038286;28;20447;-90
2021/09/18 07:05:29;;;;;;;20.37;13.57;;;16.60;99.90;;;;;;5037553;28;20451;-92
2021/09/18 07:08:05;;;;;;;8.37;7.60;;;;;;;;;;5034490;28;20474;-91
2021/09/18 07:10:39;;;;;;;8.20;6.80;;;16.90;99.90;;;;;;5039175;28;20793;-89
2021/09/18 07:13:18;;;;;;;6.93;6.23;;;;;;;;;;5041247;28;20448;-90
2021/09/18 07:15:45;;;;;;;7.27;6.57;;;;;;;;;;5044744;28;20515;-90
2021/09/18 07:18:14;;;;;;;7.13;6.53;;;17.10;99.90;;;;;;5039001;28;20488;-92
2021/09/18 07:20:45;;;;;;;7.50;6.90;;;17.60;99.90;;;;;;5040290;28;20462;-93
2021/09/18 07:23:13;;;;;;;9.00;7.30;;;;;;;;;;5034688;28;20445;-91
2021/09/18 07:25:40;;;;;;;8.07;7.27;;;;;;;;;;5039315;28;20425;-90
2021/09/18 07:28:24;;;;;;;8.20;7.40;;;18.40;99.90;;;;;;5038867;28;20490;-91
2021/09/18 07:30:53;;;;;;;7.80;7.03;;;;;;;;;;5037300;28;20473;-91
2021/09/18 07:33:20;;;;;;;7.03;6.33;;;;;;;;;;5031073;28;20436;-90
2021/09/18 07:35:52;;;;;;;8.07;7.37;;;;;;;;;;5042016;28;20443;-90
2021/09/18 07:38:19;;;;;;;7.63;5.70;;;;;;;;;;5028015;28;20442;-92
2021/09/18 07:40:46;;;;;;;7.20;6.50;;;;;;;;;;5042713;28;20447;-92
2021/09/18 07:43:13;;;;;;;6.27;5.77;;;;;;;;;;5049529;28;20442;-93
2021/09/18 07:45:41;;;;;;;5.07;4.67;;;;;;;;;;5045939;28;20435;-90
2021/09/18 07:48:09;;;;;;;4.77;4.47;;;;;;;;;;5045846;28;20463;-93
2021/09/18 07:50:36;;;;;;;4.90;4.57;;;;;;;;;;5038759;28;20518;-90
2021/09/18 07:53:06;;;;;;;4.83;4.43;;;20.00;99.90;;;;;;5033477;28;20451;-89
2021/09/18 07:55:33;;;;;;;4.80;4.33;;;;;;;;;;5043664;28;20501;-90
2021/09/18 07:58:01;;;;;;;5.30;4.87;;;;;;;;;;5062312;22;20854;-89
2021/09/18 08:00:28;;;;;;;4.50;4.10;;;;;;;;;;5057712;22;20492;-89
2021/09/18 08:02:55;;;;;;;4.90;4.50;;;;;;;;;;5044269;28;20440;-89
2021/09/18 08:05:23;;;;;;;4.90;4.50;;;;;;;;;;5042654;28;20461;-89
2021/09/18 08:07:50;;;;;;;5.33;4.87;;;;;;;;;;5046762;28;20444;-90
2021/09/18 08:10:18;;;;;;;4.93;4.57;;;21.70;99.90;;;;;;5043809;28;20595;-90
2021/09/18 08:12:48;;;;;;;7.33;5.30;;;;;;;;;;5038244;28;20954;-89
2021/09/18 08:15:15;;;;;;;5.30;4.90;;;;;;;;;;5041309;28;20515;-89
2021/09/18 08:17:44;;;;;;;6.00;5.50;;;;;;;;;;5042481;28;20954;-90
2021/09/18 08:20:12;;;;;;;5.60;5.10;;;22.20;99.90;;;;;;5039257;28;20480;-90
2021/09/18 08:22:39;;;;;;;5.80;5.40;;;;;;;;;;5038896;28;20443;-89
2021/09/18 08:25:08;;;;;;;6.67;6.17;;;22.30;99.90;;;;;;5040976;28;20444;-90
2021/09/18 08:27:36;;;;;;;7.30;6.60;;;22.00;99.90;;;;;;5041677;28;20444;-90
2021/09/18 08:30:05;;;;;;;8.07;5.60;;;22.70;99.40;;;;;;5040521;28;20487;-90
2021/09/18 08:32:32;;;;;;;6.77;6.17;;;;;;;;;;5041818;28;20448;-92
2021/09/18 08:35:02;;;;;;;7.90;7.13;;;;;;;;;;5045940;22;20852;-91
2021/09/18 08:37:30;;;;;;;6.50;5.50;;;21.30;99.90;;;;;;5049728;22;20491;-91
2021/09/18 08:39:58;;;;;;;5.77;5.27;;;;;;;;;;5043248;28;20450;-91
2021/09/18 08:42:26;;;;;;;5.43;5.03;;;22.10;99.90;;;;;;5043156;28;20439;-90
2021/09/18 08:44:54;;;;;;;6.00;5.50;;;22.40;99.50;;;;;;5043649;28;20454;-90
2021/09/18 08:47:23;;;;;;;6.20;5.57;;;23.00;99.90;;;;;;5041020;28;20784;-91
2021/09/18 08:49:51;;;;;;;6.13;5.60;;;;;;;;;;5037749;28;20491;-91
2021/09/18 08:52:18;;;;;;;6.60;6.10;;;;;;;;;;5045391;28;20758;-91
2021/09/18 08:54:45;;;;;;;7.00;6.40;;;;;;;;;;5036380;28;20450;-94
2021/09/18 08:57:13;;;;;;;9.47;8.47;;;22.80;97.90;;;;;;5036253;28;20451;-91
2021/09/18 08:59:41;;;;;;;10.73;7.20;;;;;;;;;;5036911;28;20448;-89
2021/09/18 09:02:27;;;;;;;7.03;6.43;;;23.00;97.20;;;;;;5037981;28;20479;-89
2021/09/18 09:05:02;;;;;;;6.50;5.93;;;;;;;;;;5040392;28;20922;-89
2021/09/18 09:07:30;;;;;;;6.57;5.93;;;;;;;;;;5023300;28;20452;-90
2021/09/18 09:09:59;;;;;;;6.27;5.77;;;23.60;96.10;;;;;;5020343;28;20476;-90
2021/09/18 09:12:27;;;;;;;6.10;5.60;;;23.10;96.40;;;;;;5019145;28;20446;-91
2021/09/18 09:14:55;;;;;;;11.83;6.33;;;;;;;;;;5014621;28;20445;-93
2021/09/18 09:17:29;;;;;;;12.17;11.13;;;23.30;97.10;;;;;;5016633;28;20456;-89
2021/09/18 09:19:56;;;;;;;8.10;7.40;;;;;;;;;;5019293;28;20455;-89
2021/09/18 09:22:37;;;;;;;7.57;6.97;;;23.60;95.50;;;;;;5015139;28;20436;-90
2021/09/18 09:25:25;;;;;;;8.23;7.53;;;24.00;96.00;;;;;;5014447;28;20527;-92
2021/09/18 09:27:52;;;;;;;6.80;6.20;;;;;;;;;;5012468;28;20447;-92
2021/09/18 09:30:31;;;;;;;7.70;6.80;;;23.80;96.70;;;;;;5018767;28;20498;-87
2021/09/18 09:33:07;;;;;;;7.00;6.40;;;23.20;95.30;;;;;;5024264;28;20842;-89
2021/09/18 09:35:36;;;;;;;6.40;5.80;;;23.40;96.50;;;;;;5021993;28;20448;-89
2021/09/18 09:38:04;;;;;;;7.43;6.17;;;23.60;96.10;;;;;;5019637;28;21010;-91
2021/09/18 09:40:38;;;;;;;4.93;4.53;;;24.30;93.90;;;;;;5017164;28;20459;-93
2021/09/18 09:43:06;;;;;;;6.00;5.50;;;;;;;;;;5018051;28;20468;-91
2021/09/18 09:45:33;;;;;;;8.43;5.00;;;;;;;;;;5019653;28;20468;-90
2021/09/18 09:48:08;;;;;;;5.10;4.60;;;24.70;91.40;;;;;;5019793;28;20453;-93
2021/09/18 09:50:38;;;;;;;4.73;4.33;;;25.00;91.00;;;;;;5015837;28;21857;-91
2021/09/18 09:53:08;;;;;;;5.10;4.70;;;24.20;92.60;;;;;;5018956;28;20794;-95
2021/09/18 09:55:41;;;;;;;4.80;3.93;;;23.90;99.50;;;;;;4990061;28;20480;-90
2021/09/18 09:58:10;;;;;;;4.30;3.90;;;24.00;92.90;;;;;;5001756;28;20445;-91
2021/09/18 10:00:40;;;;;;;7.17;4.20;;;24.50;92.00;;;;;;5000949;28;20464;-91
2021/09/18 10:03:09;;;;;;;4.70;4.30;;;24.70;91.40;;;;;;5006327;28;20434;-91
2021/09/18 10:05:38;;;;;;;3.00;2.70;;;24.30;90.80;;;;;;5111194;22;20578;-90
2021/09/18 10:08:05;;;;;;;3.77;3.00;;;25.10;99.90;;;;;;5062087;28;20447;-90
2021/09/18 10:10:32;;;;;;;5.10;2.90;;;;;;;;;;5062190;28;20489;-91
2021/09/18 10:13:00;;;;;;;4.30;3.63;;;;;;;;;;5061972;28;20450;-90
2021/09/18 10:15:31;;;;;;;3.70;3.40;;;24.60;90.30;;;;;;5064574;28;20441;-91
2021/09/18 10:18:00;;;;;;;2.30;2.10;;;;;;;;;;5058863;28;20444;-90
2021/09/18 10:23:17;;;;;;;3.27;2.90;;;24.00;89.90;;;;;;5058487;28;20781;-91
2021/09/18 10:25:47;;;;;;;3.00;2.60;;;24.30;87.60;;;;;;5057835;28;20446;-92
2021/09/18 10:28:17;;;;;;;2.60;2.40;;;24.50;85.20;;;;;;5056550;28;20451;-91
2021/09/18 10:30:45;;;;;;;2.87;2.57;;;23.20;87.60;;;;;;5055533;28;20487;-91
2021/09/18 10:33:32;;;;;;;2.50;2.27;;;24.00;87.50;;;;;;5063652;28;20576;-94
2021/09/18 10:36:05;;;;;;;3.43;2.80;;;24.60;87.00;;;;;;5060196;28;20546;-93
2021/09/18 10:38:35;;;;;;;2.70;2.50;;;23.60;90.10;;;;;;5061354;28;20450;-91
2021/09/18 10:41:06;;;;;;;2.10;1.90;;;23.90;88.50;;;;;;5058366;28;20453;-93
2021/09/18 10:43:37;;;;;;;1.87;1.77;;;23.90;87.30;;;;;;5057833;28;20442;-90
2021/09/18 10:46:05;;;;;;;2.27;1.63;;;24.10;85.10;;;;;;5057417;28;20800;-90
2021/09/18 10:48:46;;;;;;;2.50;2.30;;;24.50;86.50;;;;;;5056533;28;20434;-89
2021/09/18 10:51:35;;;;;;;3.30;2.40;;;24.70;85.30;;;;;;5057034;28;20492;-92
2021/09/18 10:54:14;;;;;;;2.33;2.13;;;24.20;85.50;;;;;;5055978;28;20446;-92
2021/09/18 10:56:57;;;;;;;2.00;1.90;;;25.10;89.10;;;;;;5058095;28;20469;-92
2021/09/18 10:59:45;;;;;;;3.20;2.20;;;23.50;82.70;;;;;;5053374;28;20569;-88
2021/09/18 11:02:42;;;;;;;2.90;1.40;;;23.80;85.30;;;;;;5058282;28;20442;-92
2021/09/18 11:05:09;;;;;;;1.57;1.47;;;;;;;;;;5056806;28;20478;-91
2021/09/18 11:07:44;;;;;;;2.27;2.07;;;25.00;86.70;;;;;;5061966;28;20438;-93
2021/09/18 11:10:14;;;;;;;3.63;1.80;;;25.30;86.60;;;;;;5055242;28;20881;-92
2021/09/18 11:12:41;;;;;;;1.80;1.70;;;;;;;;;;5057165;28;20445;-96
2021/09/18 11:15:11;;;;;;;1.83;1.70;;;24.20;84.80;;;;;;5055759;28;20845;-94
2021/09/18 11:17:43;;;;;;;1.70;1.60;;;;;;;;;;5055483;28;20446;-96
2021/09/18 11:20:14;;;;;;;1.90;1.80;;;25.10;82.70;;;;;;5052058;28;20431;-91
2021/09/18 11:22:42;;;;;;;2.10;1.90;;;;;;;;;;5056433;28;20492;-93
2021/09/18 11:25:30;;;;;;;36.10;33.00;;;23.70;93.20;;;;;;5056019;28;20434;-94
2021/09/18 11:28:05;;;;;;;13.87;12.53;;;24.40;90.20;;;;;;5055174;28;20522;-92
2021/09/18 11:30:39;;;;;;;2.87;2.67;;;;;;;;;;5059277;28;20477;-94
2021/09/18 11:33:06;;;;;;;2.43;1.80;;;;;;;;;;5055714;28;20797;-93
2021/09/18 11:35:34;;;;;;;2.53;1.90;;;;;;;;;;5055394;28;20768;-92
2021/09/18 11:38:01;;;;;;;2.77;2.10;;;;;;;;;;5057340;28;20453;-92
2021/09/18 11:40:30;;;;;;;2.10;2.00;;;;;;;;;;5055767;28;20442;-94
2021/09/18 11:42:57;;;;;;;2.27;2.07;;;;;;;;;;5054515;28;20453;-92
2021/09/18 11:45:26;;;;;;;2.20;2.00;;;23.30;86.90;;;;;;5052912;28;20458;-91
2021/09/18 11:47:56;;;;;;;2.27;1.90;;;23.50;89.30;;;;;;5056725;28;20457;-92
2021/09/18 11:50:26;;;;;;;2.77;1.90;;;23.90;86.30;;;;;;5055163;28;20581;-91
2021/09/18 11:52:55;;;;;;;2.80;2.47;;;24.20;86.00;;;;;;5054361;28;20450;-91
2021/09/18 11:55:41;;;;;;;4.43;2.40;;;24.20;87.20;;;;;;5050805;28;20756;-94
2021/09/18 11:58:15;;;;;;;4.43;2.70;;;23.50;90.00;;;;;;5054449;28;20435;-92
2021/09/18 12:00:54;;;;;;;3.00;2.50;;;24.00;88.40;;;;;;5053339;28;20455;-94
2021/09/18 12:03:23;;;;;;;3.27;2.67;;;24.20;86.50;;;;;;5053682;28;20814;-92
2021/09/18 12:05:52;;;;;;;2.60;2.40;;;23.90;86.40;;;;;;5051902;28;20486;-93
2021/09/18 12:08:22;;;;;;;2.57;2.37;;;24.20;86.40;;;;;;5037689;28;20467;-90
2021/09/18 12:10:49;;;;;;;3.63;2.50;;;;;;;;;;5044634;28;20533;-90
2021/09/18 12:13:21;;;;;;;3.20;2.20;;;24.80;86.90;;;;;;5042188;28;20440;-90
2021/09/18 12:15:49;;;;;;;6.80;4.70;;;;;;;;;;5035266;28;20574;-92
2021/09/18 12:18:24;;;;;;;3.37;3.07;;;25.10;91.40;;;;;;5034780;28;20451;-90
2021/09/18 12:20:52;;;;;;;6.20;2.83;;;;;;;;;;5033971;28;20765;-89
2021/09/18 12:23:24;;;;;;;3.80;2.93;;;25.00;87.30;;;;;;5054500;28;20519;-91
2021/09/18 12:25:58;;;;;;;2.97;2.77;;;25.10;87.10;;;;;;5054129;28;20451;-91
2021/09/18 12:28:28;;;;;;;3.23;2.90;;;25.30;84.00;;;;;;5055100;28;20435;-90
2021/09/18 12:30:56;;;;;;;3.73;3.00;;;;;;;;;;5055985;28;20479;-90
2021/09/18 12:33:30;;;;;;;3.30;3.00;;;24.90;82.20;;;;;;5053945;28;20443;-90
2021/09/18 12:36:05;;;;;;;3.37;3.07;;;24.70;84.00;;;;;;5054055;28;20792;-91
2021/09/18 12:38:32;;;;;;;4.10;2.60;;;;;;;;;;5067211;28;20466;-92
2021/09/18 12:41:01;;;;;;;3.30;3.00;;;25.00;85.40;;;;;;5070469;28;20439;-90
2021/09/18 12:43:30;;;;;;;3.80;2.63;;;25.10;87.50;;;;;;5057302;28;20448;-94
2021/09/18 12:46:10;;;;;;;3.87;3.20;;;25.60;87.10;;;;;;5053768;28;20993;-90
2021/09/18 12:48:38;;;;;;;2.90;2.70;;;;;;;;;;5053794;28;20430;-91
2021/09/18 12:51:08;;;;;;;3.70;3.20;;;25.40;88.10;;;;;;5053529;28;20494;-93
2021/09/18 12:53:37;;;;;;;4.07;3.77;;;25.40;84.70;;;;;;5051119;28;20442;-89
2021/09/18 12:56:12;;;;;;;6.10;5.60;;;25.00;87.80;;;;;;5051290;28;20457;-88
2021/09/18 12:58:42;;;;;;;4.20;3.80;;;25.40;86.10;;;;;;5048462;28;20450;-89
2021/09/18 13:01:10;;;;;;;3.40;3.10;;;25.30;87.30;;;;;;5052227;28;20450;-90
2021/09/18 13:03:38;;;;;;;4.87;3.77;;;25.90;90.30;;;;;;5053322;28;20462;-91
2021/09/18 13:06:06;;;;;;;3.10;2.80;;;23.20;89.70;;;;;;5050288;28;20611;-90
2021/09/18 13:08:56;;;;;;;3.20;2.90;;;22.30;89.60;;;;;;5053191;28;20489;-90
2021/09/18 13:11:26;;;;;;;3.13;2.83;;;22.20;90.10;;;;;;5052399;28;21051;-91
2021/09/18 13:13:55;;;;;;;3.73;3.43;;;21.60;90.10;;;;;;5054533;28;20525;-89
2021/09/18 13:16:23;;;;;;;3.03;2.83;;;21.50;92.60;;;;;;5053201;28;20952;-95
2021/09/18 13:19:08;;;;;;;3.50;3.30;;;21.30;94.30;;;;;;5074450;28;20458;-93
2021/09/18 13:21:36;;;;;;;3.53;3.20;;;;;;;;;;5062181;28;20465;-93
2021/09/18 13:24:05;;;;;;;4.00;3.40;;;;;;;;;;5060535;28;20441;-92
2021/09/18 13:26:33;;;;;;;3.73;2.90;;;;;;;;;;5058632;28;20493;-90
2021/09/18 13:29:03;;;;;;;3.20;3.00;;;20.80;95.40;;;;;;5059911;28;20561;-91
2021/09/18 13:31:31;;;;;;;2.90;2.70;;;21.70;95.70;;;;;;5064333;28;20973;-92
2021/09/18 13:33:59;;;;;;;6.17;3.03;;;;;;;;;;5065216;28;20798;-91
2021/09/18 13:36:26;;;;;;;4.10;3.70;;;;;;;;;;5039831;23;20522;-92
2021/09/18 13:38:54;;;;;;;6.33;2.97;;;;;;;;;;5021311;28;20436;-91
2021/09/18 13:41:21;;;;;;;3.07;2.77;;;24.10;90.10;;;;;;5022410;28;20519;-90
2021/09/18 13:43:49;;;;;;;3.43;3.13;;;;;;;;;;5021456;28;20456;-91
2021/09/18 13:46:17;;;;;;;2.37;2.17;;;;;;;;;;5020030;28;20436;-91
2021/09/18 13:48:45;;;;;;;3.03;2.83;;;;;;;;;;5024041;28;20498;-91
2021/09/18 13:51:12;;;;;;;7.03;2.83;;;;;;;;;;5021495;28;20994;-91
2021/09/18 13:53:40;;;;;;;2.43;2.23;;;;;;;;;;5021005;28;20958;-93
2021/09/18 13:56:09;;;;;;;3.00;2.80;;;;;;;;;;5021971;28;20436;-90
2021/09/18 13:58:36;;;;;;;3.27;2.80;;;;;;;;;;5023649;28;20441;-90
2021/09/18 14:01:03;;;;;;;3.00;2.70;;;;;;;;;;5019810;28;20444;-92
2021/09/18 14:03:33;;;;;;;4.80;3.23;;;24.80;86.60;;;;;;5020796;28;20455;-92
2021/09/18 14:06:00;;;;;;;4.10;3.80;;;;;;;;;;5018819;28;20440;-89
2021/09/18 14:08:28;;;;;;;3.60;3.30;;;;;;;;;;5027103;28;20455;-88